Terminal Aerodrome Forecast
Issued by NWS

Home | Current Version | Previous Version | Text Only | Print | Product List | Glossary On
Versions: 1 2 3 4 5 6 7 8 9 10 11 12 13 14 15 16 17 18 19 20 21 22 23 24
000
FTUS41 KCTP 111159
TAFLNS
TAF
KLNS 111159Z 1112/1212 26004KT P6SM OVC100
     FM111400 22004KT P6SM OVC050
     FM111600 14005KT 5SM -SN OVC050
     FM112000 15005KT P6SM OVC050
     FM120600 12005KT 3SM -FZRAPL OVC015
     FM120900 21005KT 4SM -RA OVC010=

USA.gov is the U.S. government's official web portal to all federal, state and local government web resources and services.